sensor_id;sensor_type;location;lat;lon;timestamp;pressure;altitude;pressure_sealevel;temperature;humidity
30730;BME280;17476;48.458;7.928;2023-11-21T00:00:21;99448.13;;;10.29;100.00
30730;BME280;17476;48.458;7.928;2023-11-21T00:02:47;99444.44;;;10.23;100.00
30730;BME280;17476;48.458;7.928;2023-11-21T00:05:14;99446.50;;;10.28;100.00
30730;BME280;17476;48.458;7.928;2023-11-21T00:07:40;99442.38;;;10.33;100.00
30730;BME280;17476;48.458;7.928;2023-11-21T00:10:08;99446.91;;;10.39;100.00
30730;BME280;17476;48.458;7.928;2023-11-21T00:12:34;99436.53;;;10.31;100.00
30730;BME280;17476;48.458;7.928;2023-11-21T00:15:00;99435.25;;;10.27;100.00
30730;BME280;17476;48.458;7.928;2023-11-21T00:17:27;99431.41;;;10.38;100.00
30730;BME280;17476;48.458;7.928;2023-11-21T00:19:53;99437.38;;;10.47;100.00
30730;BME280;17476;48.458;7.928;2023-11-21T00:22:19;99439.94;;;10.32;100.00
30730;BME280;17476;48.458;7.928;2023-11-21T00:24:46;99436.72;;;10.22;100.00
30730;BME280;17476;48.458;7.928;2023-11-21T00:27:12;99441.47;;;10.26;100.00
30730;BME280;17476;48.458;7.928;2023-11-21T00:29:38;99447.69;;;10.17;100.00
30730;BME280;17476;48.458;7.928;2023-11-21T00:32:05;99440.13;;;10.22;100.00
30730;BME280;17476;48.458;7.928;2023-11-21T00:34:32;99445.25;;;10.24;100.00
30730;BME280;17476;48.458;7.928;2023-11-21T00:36:58;99453.09;;;10.24;100.00
30730;BME280;17476;48.458;7.928;2023-11-21T00:39:24;99448.94;;;10.29;100.00
30730;BME280;17476;48.458;7.928;2023-11-21T00:41:51;99438.66;;;10.28;100.00
30730;BME280;17476;48.458;7.928;2023-11-21T00:44:17;99444.72;;;10.20;100.00
30730;BME280;17476;48.458;7.928;2023-11-21T00:46:43;99451.28;;;10.24;100.00
30730;BME280;17476;48.458;7.928;2023-11-21T00:49:09;99447.16;;;10.30;100.00
30730;BME280;17476;48.458;7.928;2023-11-21T00:51:34;99447.41;;;10.12;100.00
30730;BME280;17476;48.458;7.928;2023-11-21T00:54:01;99446.88;;;10.17;100.00
30730;BME280;17476;48.458;7.928;2023-11-21T00:56:27;99444.88;;;10.27;100.00
30730;BME280;17476;48.458;7.928;2023-11-21T00:58:53;99445.41;;;10.14;100.00
30730;BME280;17476;48.458;7.928;2023-11-21T01:01:20;99443.75;;;10.21;100.00
30730;BME280;17476;48.458;7.928;2023-11-21T01:03:47;99450.88;;;10.04;100.00
30730;BME280;17476;48.458;7.928;2023-11-21T01:06:14;99454.34;;;9.97;100.00
30730;BME280;17476;48.458;7.928;2023-11-21T01:08:40;99447.31;;;9.97;100.00
30730;BME280;17476;48.458;7.928;2023-11-21T01:11:06;99458.59;;;9.98;100.00
30730;BME280;17476;48.458;7.928;2023-11-21T01:13:34;99454.34;;;9.97;100.00
30730;BME280;17476;48.458;7.928;2023-11-21T01:16:01;99451.19;;;10.09;100.00
30730;BME280;17476;48.458;7.928;2023-11-21T01:18:26;99449.13;;;9.97;100.00
30730;BME280;17476;48.458;7.928;2023-11-21T01:20:52;99447.78;;;10.01;100.00
30730;BME280;17476;48.458;7.928;2023-11-21T01:23:21;99444.78;;;10.12;100.00
30730;BME280;17476;48.458;7.928;2023-11-21T01:25:47;99441.69;;;10.08;100.00
30730;BME280;17476;48.458;7.928;2023-11-21T01:28:13;99447.03;;;10.15;100.00
30730;BME280;17476;48.458;7.928;2023-11-21T01:30:39;99445.66;;;10.04;100.00
30730;BME280;17476;48.458;7.928;2023-11-21T01:33:05;99451.56;;;9.98;100.00
30730;BME280;17476;48.458;7.928;2023-11-21T01:35:30;99448.38;;;9.80;100.00
30730;BME280;17476;48.458;7.928;2023-11-21T01:37:56;99439.97;;;9.62;100.00
30730;BME280;17476;48.458;7.928;2023-11-21T01:40:22;99448.16;;;9.58;100.00
30730;BME280;17476;48.458;7.928;2023-11-21T01:42:48;99435.59;;;9.54;100.00
30730;BME280;17476;48.458;7.928;2023-11-21T01:45:14;99441.09;;;9.67;100.00
30730;BME280;17476;48.458;7.928;2023-11-21T01:47:41;99435.38;;;9.72;100.00
30730;BME280;17476;48.458;7.928;2023-11-21T01:50:08;99433.13;;;9.61;100.00
30730;BME280;17476;48.458;7.928;2023-11-21T01:52:38;99431.31;;;9.69;100.00
30730;BME280;17476;48.458;7.928;2023-11-21T01:55:07;99433.38;;;9.74;100.00
30730;BME280;17476;48.458;7.928;2023-11-21T01:57:37;99434.47;;;9.88;100.00
30730;BME280;17476;48.458;7.928;2023-11-21T02:00:05;99425.75;;;9.95;100.00
30730;BME280;17476;48.458;7.928;2023-11-21T02:02:47;99433.44;;;9.97;100.00
30730;BME280;17476;48.458;7.928;2023-11-21T02:05:18;99433.72;;;10.02;100.00
30730;BME280;17476;48.458;7.928;2023-11-21T02:07:47;99436.13;;;10.11;100.00
30730;BME280;17476;48.458;7.928;2023-11-21T02:10:14;99438.44;;;10.06;100.00
30730;BME280;17476;48.458;7.928;2023-11-21T02:12:44;99438.81;;;9.95;100.00
30730;BME280;17476;48.458;7.928;2023-11-21T02:15:11;99443.22;;;10.03;100.00
30730;BME280;17476;48.458;7.928;2023-11-21T02:17:43;99445.53;;;9.98;100.00
30730;BME280;17476;48.458;7.928;2023-11-21T02:20:20;99440.25;;;10.06;100.00
30730;BME280;17476;48.458;7.928;2023-11-21T02:22:54;99446.47;;;10.05;100.00
30730;BME280;17476;48.458;7.928;2023-11-21T02:25:31;99433.72;;;10.02;100.00
30730;BME280;17476;48.458;7.928;2023-11-21T02:27:59;99438.81;;;10.03;100.00
30730;BME280;17476;48.458;7.928;2023-11-21T02:30:27;99431.59;;;10.05;100.00
30730;BME280;17476;48.458;7.928;2023-11-21T02:32:54;99448.09;;;10.06;100.00
30730;BME280;17476;48.458;7.928;2023-11-21T02:35:22;99440.59;;;10.03;100.00
30730;BME280;17476;48.458;7.928;2023-11-21T02:37:49;99440.31;;;10.21;100.00
30730;BME280;17476;48.458;7.928;2023-11-21T02:40:15;99439.25;;;10.07;100.00
30730;BME280;17476;48.458;7.928;2023-11-21T02:42:46;99439.50;;;9.97;100.00
30730;BME280;17476;48.458;7.928;2023-11-21T02:45:14;99439.63;;;10.04;100.00
30730;BME280;17476;48.458;7.928;2023-11-21T02:47:45;99432.41;;;10.06;100.00
30730;BME280;17476;48.458;7.928;2023-11-21T02:50:11;99433.09;;;10.00;100.00
30730;BME280;17476;48.458;7.928;2023-11-21T02:52:37;99435.41;;;9.95;100.00
30730;BME280;17476;48.458;7.928;2023-11-21T02:55:03;99428.59;;;9.85;100.00
30730;BME280;17476;48.458;7.928;2023-11-21T02:57:29;99435.59;;;9.93;100.00
30730;BME280;17476;48.458;7.928;2023-11-21T02:59:55;99439.22;;;9.84;100.00
30730;BME280;17476;48.458;7.928;2023-11-21T03:02:21;99433.47;;;9.89;100.00
30730;BME280;17476;48.458;7.928;2023-11-21T03:04:48;99438.69;;;9.89;100.00
30730;BME280;17476;48.458;7.928;2023-11-21T03:07:15;99439.53;;;9.89;100.00
30730;BME280;17476;48.458;7.928;2023-11-21T03:09:41;99429.28;;;9.79;100.00
30730;BME280;17476;48.458;7.928;2023-11-21T03:12:08;99434.81;;;9.84;100.00
30730;BME280;17476;48.458;7.928;2023-11-21T03:14:34;99442.59;;;9.93;100.00
30730;BME280;17476;48.458;7.928;2023-11-21T03:17:00;99446.25;;;9.83;100.00
30730;BME280;17476;48.458;7.928;2023-11-21T03:19:26;99454.94;;;9.68;100.00
30730;BME280;17476;48.458;7.928;2023-11-21T03:21:51;99449.22;;;9.72;100.00
30730;BME280;17476;48.458;7.928;2023-11-21T03:24:19;99446.84;;;9.63;100.00
30730;BME280;17476;48.458;7.928;2023-11-21T03:26:46;99446.03;;;9.62;100.00
30730;BME280;17476;48.458;7.928;2023-11-21T03:29:12;99446.00;;;9.70;100.00
30730;BME280;17476;48.458;7.928;2023-11-21T03:31:39;99447.94;;;9.68;100.00
30730;BME280;17476;48.458;7.928;2023-11-21T03:34:05;99445.03;;;9.63;100.00
30730;BME280;17476;48.458;7.928;2023-11-21T03:36:31;99452.78;;;9.79;100.00
30730;BME280;17476;48.458;7.928;2023-11-21T03:38:57;99452.03;;;9.71;100.00
30730;BME280;17476;48.458;7.928;2023-11-21T03:41:23;99457.28;;;9.63;100.00
30730;BME280;17476;48.458;7.928;2023-11-21T03:43:49;99453.66;;;9.72;100.00
30730;BME280;17476;48.458;7.928;2023-11-21T03:46:14;99462.69;;;9.53;100.00
30730;BME280;17476;48.458;7.928;2023-11-21T03:48:40;99454.69;;;9.54;100.00
30730;BME280;17476;48.458;7.928;2023-11-21T03:51:07;99452.53;;;9.66;100.00
30730;BME280;17476;48.458;7.928;2023-11-21T03:53:33;99446.03;;;9.54;100.00
30730;BME280;17476;48.458;7.928;2023-11-21T03:55:59;99452.28;;;9.45;100.00
30730;BME280;17476;48.458;7.928;2023-11-21T03:58:27;99455.09;;;9.27;100.00
30730;BME280;17476;48.458;7.928;2023-11-21T04:00:55;99461.25;;;9.34;100.00
30730;BME280;17476;48.458;7.928;2023-11-21T04:03:21;99456.59;;;9.21;100.00
30730;BME280;17476;48.458;7.928;2023-11-21T04:05:47;99457.22;;;9.23;100.00
30730;BME280;17476;48.458;7.928;2023-11-21T04:08:13;99454.59;;;9.32;100.00
30730;BME280;17476;48.458;7.928;2023-11-21T04:10:38;99462.75;;;9.37;100.00
30730;BME280;17476;48.458;7.928;2023-11-21T04:13:05;99465.50;;;9.43;100.00
30730;BME280;17476;48.458;7.928;2023-11-21T04:15:32;99465.28;;;9.53;100.00
30730;BME280;17476;48.458;7.928;2023-11-21T04:17:58;99471.16;;;9.55;100.00
30730;BME280;17476;48.458;7.928;2023-11-21T04:20:24;99479.50;;;9.50;100.00
30730;BME280;17476;48.458;7.928;2023-11-21T04:22:50;99477.34;;;9.62;100.00
30730;BME280;17476;48.458;7.928;2023-11-21T04:25:16;99474.25;;;9.58;100.00
30730;BME280;17476;48.458;7.928;2023-11-21T04:27:43;99482.75;;;9.52;100.00
30730;BME280;17476;48.458;7.928;2023-11-21T04:30:11;99493.72;;;9.40;100.00
30730;BME280;17476;48.458;7.928;2023-11-21T04:32:37;99488.78;;;9.53;100.00
30730;BME280;17476;48.458;7.928;2023-11-21T04:35:05;99493.22;;;9.44;100.00
30730;BME280;17476;48.458;7.928;2023-11-21T04:37:30;99500.41;;;9.34;100.00
30730;BME280;17476;48.458;7.928;2023-11-21T04:39:56;99501.59;;;9.23;100.00
30730;BME280;17476;48.458;7.928;2023-11-21T04:42:22;99500.41;;;9.34;100.00
30730;BME280;17476;48.458;7.928;2023-11-21T04:44:49;99506.28;;;9.36;100.00
30730;BME280;17476;48.458;7.928;2023-11-21T04:47:15;99500.56;;;9.41;100.00
30730;BME280;17476;48.458;7.928;2023-11-21T04:49:43;99492.88;;;9.55;100.00
30730;BME280;17476;48.458;7.928;2023-11-21T04:52:12;99491.53;;;9.60;100.00
30730;BME280;17476;48.458;7.928;2023-11-21T04:54:38;99488.75;;;9.61;100.00
30730;BME280;17476;48.458;7.928;2023-11-21T04:57:05;99491.22;;;9.54;100.00
30730;BME280;17476;48.458;7.928;2023-11-21T04:59:34;99501.50;;;9.48;100.00
30730;BME280;17476;48.458;7.928;2023-11-21T05:01:59;99500.34;;;9.58;100.00
30730;BME280;17476;48.458;7.928;2023-11-21T05:04:28;99500.53;;;9.57;100.00
30730;BME280;17476;48.458;7.928;2023-11-21T05:06:54;99500.72;;;9.47;100.00
30730;BME280;17476;48.458;7.928;2023-11-21T05:09:20;99505.41;;;9.60;100.00
30730;BME280;17476;48.458;7.928;2023-11-21T05:11:45;99498.03;;;9.72;100.00
30730;BME280;17476;48.458;7.928;2023-11-21T05:14:11;99501.81;;;9.69;100.00
30730;BME280;17476;48.458;7.928;2023-11-21T05:16:37;99500.97;;;9.77;100.00
30730;BME280;17476;48.458;7.928;2023-11-21T05:19:03;99496.91;;;9.66;100.00
30730;BME280;17476;48.458;7.928;2023-11-21T05:21:29;99507.97;;;9.68;100.00
30730;BME280;17476;48.458;7.928;2023-11-21T05:23:57;99513.19;;;9.76;100.00
30730;BME280;17476;48.458;7.928;2023-11-21T05:26:23;99508.84;;;9.52;100.00
30730;BME280;17476;48.458;7.928;2023-11-21T05:28:49;99513.47;;;9.42;100.00
30730;BME280;17476;48.458;7.928;2023-11-21T05:31:15;99518.66;;;9.50;100.00
30730;BME280;17476;48.458;7.928;2023-11-21T05:33:41;99520.47;;;9.42;100.00
30730;BME280;17476;48.458;7.928;2023-11-21T05:36:07;99516.25;;;9.33;100.00
30730;BME280;17476;48.458;7.928;2023-11-21T05:38:35;99519.81;;;9.40;100.00
30730;BME280;17476;48.458;7.928;2023-11-21T05:41:02;99524.88;;;9.49;100.00
30730;BME280;17476;48.458;7.928;2023-11-21T05:43:29;99526.81;;;9.47;100.00
30730;BME280;17476;48.458;7.928;2023-11-21T05:45:56;99518.69;;;9.34;100.00
30730;BME280;17476;48.458;7.928;2023-11-21T05:48:22;99525.38;;;9.37;100.00
30730;BME280;17476;48.458;7.928;2023-11-21T05:50:49;99527.31;;;9.51;100.00
30730;BME280;17476;48.458;7.928;2023-11-21T05:53:15;99530.56;;;9.53;100.00
30730;BME280;17476;48.458;7.928;2023-11-21T05:55:42;99534.47;;;9.41;100.00
30730;BME280;17476;48.458;7.928;2023-11-21T05:58:08;99529.91;;;9.35;100.00
30730;BME280;17476;48.458;7.928;2023-11-21T06:00:34;99531.72;;;9.34;100.00
30730;BME280;17476;48.458;7.928;2023-11-21T06:03:00;99539.88;;;9.39;100.00
30730;BME280;17476;48.458;7.928;2023-11-21T06:05:26;99544.59;;;9.52;100.00
30730;BME280;17476;48.458;7.928;2023-11-21T06:07:54;99540.81;;;9.54;100.00
30730;BME280;17476;48.458;7.928;2023-11-21T06:10:23;99537.91;;;9.49;100.00
30730;BME280;17476;48.458;7.928;2023-11-21T06:12:49;99541.13;;;9.60;100.00
30730;BME280;17476;48.458;7.928;2023-11-21T06:15:15;99543.41;;;9.71;100.00
30730;BME280;17476;48.458;7.928;2023-11-21T06:17:42;99551.94;;;9.56;100.00
30730;BME280;17476;48.458;7.928;2023-11-21T06:20:10;99554.03;;;9.61;100.00
30730;BME280;17476;48.458;7.928;2023-11-21T06:22:42;99557.75;;;9.67;100.00
30730;BME280;17476;48.458;7.928;2023-11-21T06:25:08;99560.06;;;9.62;100.00
30730;BME280;17476;48.458;7.928;2023-11-21T06:27:43;99558.78;;;9.49;100.00
30730;BME280;17476;48.458;7.928;2023-11-21T06:30:11;99551.41;;;9.61;100.00
30730;BME280;17476;48.458;7.928;2023-11-21T06:32:38;99561.16;;;9.75;100.00
30730;BME280;17476;48.458;7.928;2023-11-21T06:35:05;99570.31;;;9.79;100.00
30730;BME280;17476;48.458;7.928;2023-11-21T06:37:31;99571.75;;;9.90;100.00
30730;BME280;17476;48.458;7.928;2023-11-21T06:39:58;99569.81;;;9.84;100.00
30730;BME280;17476;48.458;7.928;2023-11-21T06:42:25;99577.13;;;9.89;100.00
30730;BME280;17476;48.458;7.928;2023-11-21T06:44:51;99579.28;;;9.77;100.00
30730;BME280;17476;48.458;7.928;2023-11-21T06:47:23;99569.84;;;9.76;100.00
30730;BME280;17476;48.458;7.928;2023-11-21T06:49:52;99570.44;;;9.86;100.00
30730;BME280;17476;48.458;7.928;2023-11-21T06:52:19;99583.81;;;9.91;100.00
30730;BME280;17476;48.458;7.928;2023-11-21T06:54:48;99583.97;;;9.98;100.00
30730;BME280;17476;48.458;7.928;2023-11-21T06:57:15;99582.84;;;9.92;100.00
30730;BME280;17476;48.458;7.928;2023-11-21T06:59:41;99592.41;;;10.08;100.00
30730;BME280;17476;48.458;7.928;2023-11-21T07:02:07;99590.28;;;10.11;100.00
30730;BME280;17476;48.458;7.928;2023-11-21T07:04:34;99591.28;;;10.10;100.00
30730;BME280;17476;48.458;7.928;2023-11-21T07:07:00;99601.41;;;10.05;100.00
30730;BME280;17476;48.458;7.928;2023-11-21T07:09:25;99600.91;;;10.02;100.00
30730;BME280;17476;48.458;7.928;2023-11-21T07:11:52;99593.78;;;9.96;100.00
30730;BME280;17476;48.458;7.928;2023-11-21T07:14:18;99599.66;;;9.90;100.00
30730;BME280;17476;48.458;7.928;2023-11-21T07:16:46;99597.72;;;9.83;100.00
30730;BME280;17476;48.458;7.928;2023-11-21T07:19:12;99601.78;;;9.86;100.00
30730;BME280;17476;48.458;7.928;2023-11-21T07:21:38;99601.63;;;9.88;100.00
30730;BME280;17476;48.458;7.928;2023-11-21T07:24:06;99612.06;;;9.88;100.00
30730;BME280;17476;48.458;7.928;2023-11-21T07:26:34;99604.38;;;9.94;100.00
30730;BME280;17476;48.458;7.928;2023-11-21T07:29:01;99614.31;;;9.99;100.00
30730;BME280;17476;48.458;7.928;2023-11-21T07:31:28;99611.22;;;10.03;100.00
30730;BME280;17476;48.458;7.928;2023-11-21T07:33:55;99619.34;;;10.08;100.00
30730;BME280;17476;48.458;7.928;2023-11-21T07:36:23;99620.16;;;10.09;100.00
30730;BME280;17476;48.458;7.928;2023-11-21T07:38:49;99630.81;;;9.99;100.00
30730;BME280;17476;48.458;7.928;2023-11-21T07:41:16;99632.59;;;10.07;100.00
30730;BME280;17476;48.458;7.928;2023-11-21T07:43:43;99643.00;;;10.15;100.00
30730;BME280;17476;48.458;7.928;2023-11-21T07:46:10;99635.84;;;10.25;100.00
30730;BME280;17476;48.458;7.928;2023-11-21T07:48:41;99638.75;;;10.30;100.00
30730;BME280;17476;48.458;7.928;2023-11-21T07:51:08;99641.84;;;10.34;100.00
30730;BME280;17476;48.458;7.928;2023-11-21T07:53:35;99640.84;;;10.43;100.00
30730;BME280;17476;48.458;7.928;2023-11-21T07:56:08;99642.06;;;10.16;100.00
30730;BME280;17476;48.458;7.928;2023-11-21T07:58:35;99646.59;;;10.14;100.00
30730;BME280;17476;48.458;7.928;2023-11-21T08:01:03;99647.13;;;10.09;100.00
30730;BME280;17476;48.458;7.928;2023-11-21T08:03:29;99653.78;;;10.20;100.00
30730;BME280;17476;48.458;7.928;2023-11-21T08:05:57;99652.47;;;10.32;100.00
30730;BME280;17476;48.458;7.928;2023-11-21T08:08:23;99651.97;;;10.29;100.00
30730;BME280;17476;48.458;7.928;2023-11-21T08:10:49;99649.03;;;10.16;100.00
30730;BME280;17476;48.458;7.928;2023-11-21T08:13:29;99654.16;;;10.01;100.00
30730;BME280;17476;48.458;7.928;2023-11-21T08:15:57;99661.78;;;10.19;100.00
30730;BME280;17476;48.458;7.928;2023-11-21T08:18:27;99662.56;;;10.35;100.00
30730;BME280;17476;48.458;7.928;2023-11-21T08:20:54;99662.97;;;10.24;100.00
30730;BME280;17476;48.458;7.928;2023-11-21T08:23:20;99663.41;;;10.20;100.00
30730;BME280;17476;48.458;7.928;2023-11-21T08:25:51;99670.44;;;10.19;100.00
30730;BME280;17476;48.458;7.928;2023-11-21T08:28:20;99667.38;;;10.24;100.00
30730;BME280;17476;48.458;7.928;2023-11-21T08:30:47;99673.69;;;10.21;100.00
30730;BME280;17476;48.458;7.928;2023-11-21T08:33:14;99672.88;;;10.29;100.00
30730;BME280;17476;48.458;7.928;2023-11-21T08:35:39;99678.94;;;10.21;100.00
30730;BME280;17476;48.458;7.928;2023-11-21T08:38:05;99685.94;;;10.21;100.00
30730;BME280;17476;48.458;7.928;2023-11-21T08:40:31;99680.13;;;10.10;100.00
30730;BME280;17476;48.458;7.928;2023-11-21T08:42:57;99670.84;;;9.92;100.00
30730;BME280;17476;48.458;7.928;2023-11-21T08:45:25;99683.56;;;9.87;100.00
30730;BME280;17476;48.458;7.928;2023-11-21T08:47:51;99689.13;;;9.92;100.00
30730;BME280;17476;48.458;7.928;2023-11-21T08:50:17;99682.22;;;10.07;100.00
30730;BME280;17476;48.458;7.928;2023-11-21T08:52:45;99683.91;;;9.92;100.00
30730;BME280;17476;48.458;7.928;2023-11-21T08:55:11;99684.38;;;9.87;100.00
30730;BME280;17476;48.458;7.928;2023-11-21T08:57:41;99691.72;;;9.75;100.00
30730;BME280;17476;48.458;7.928;2023-11-21T09:00:09;99695.16;;;9.68;100.00
30730;BME280;17476;48.458;7.928;2023-11-21T09:02:39;99692.22;;;9.54;100.00
30730;BME280;17476;48.458;7.928;2023-11-21T09:05:09;99695.16;;;9.68;100.00
30730;BME280;17476;48.458;7.928;2023-11-21T09:07:36;99696.47;;;9.80;100.00
30730;BME280;17476;48.458;7.928;2023-11-21T09:10:03;99697.59;;;9.61;100.00
30730;BME280;17476;48.458;7.928;2023-11-21T09:12:29;99694.50;;;9.74;100.00
30730;BME280;17476;48.458;7.928;2023-11-21T09:14:58;99696.16;;;9.67;100.00
30730;BME280;17476;48.458;7.928;2023-11-21T09:17:23;99698.94;;;9.57;100.00
30730;BME280;17476;48.458;7.928;2023-11-21T09:19:49;99703.66;;;9.53;100.00
30730;BME280;17476;48.458;7.928;2023-11-21T09:22:17;99710.03;;;9.51;100.00
30730;BME280;17476;48.458;7.928;2023-11-21T09:24:43;99696.63;;;9.54;100.00
30730;BME280;17476;48.458;7.928;2023-11-21T09:27:09;99705.94;;;9.65;100.00
30730;BME280;17476;48.458;7.928;2023-11-21T09:29:35;99714.09;;;9.62;100.00
30730;BME280;17476;48.458;7.928;2023-11-21T09:32:05;99714.25;;;9.44;100.00
30730;BME280;17476;48.458;7.928;2023-11-21T09:34:35;99715.25;;;9.51;100.00
30730;BME280;17476;48.458;7.928;2023-11-21T09:37:07;99711.63;;;9.68;100.00
30730;BME280;17476;48.458;7.928;2023-11-21T09:39:34;99714.94;;;9.62;100.00
30730;BME280;17476;48.458;7.928;2023-11-21T09:42:15;99717.19;;;9.73;100.00
30730;BME280;17476;48.458;7.928;2023-11-21T09:45:03;99719.97;;;9.80;100.00
30730;BME280;17476;48.458;7.928;2023-11-21T09:47:36;99725.50;;;9.52;100.00
30730;BME280;17476;48.458;7.928;2023-11-21T09:50:05;99725.00;;;9.41;100.00
30730;BME280;17476;48.458;7.928;2023-11-21T09:53:00;99722.75;;;9.62;100.00
30730;BME280;17476;48.458;7.928;2023-11-21T09:55:35;99725.53;;;9.77;100.00
30730;BME280;17476;48.458;7.928;2023-11-21T09:58:05;99727.63;;;9.81;100.00
30730;BME280;17476;48.458;7.928;2023-11-21T10:00:33;99731.22;;;9.80;100.00
30730;BME280;17476;48.458;7.928;2023-11-21T10:02:59;99735.47;;;9.81;100.00
30730;BME280;17476;48.458;7.928;2023-11-21T10:05:25;99729.75;;;10.02;100.00
30730;BME280;17476;48.458;7.928;2023-11-21T10:07:52;99730.75;;;10.09;100.00
30730;BME280;17476;48.458;7.928;2023-11-21T10:10:20;99734.00;;;10.03;100.00
30730;BME280;17476;48.458;7.928;2023-11-21T10:12:50;99737.09;;;9.99;100.00
30730;BME280;17476;48.458;7.928;2023-11-21T10:15:23;99736.78;;;10.10;100.00
30730;BME280;17476;48.458;7.928;2023-11-21T10:17:51;99738.56;;;9.93;100.00
30730;BME280;17476;48.458;7.928;2023-11-21T10:20:19;99732.22;;;9.88;100.00
30730;BME280;17476;48.458;7.928;2023-11-21T10:22:45;99737.28;;;9.97;100.00
30730;BME280;17476;48.458;7.928;2023-11-21T10:25:13;99735.97;;;9.85;100.00
30730;BME280;17476;48.458;7.928;2023-11-21T10:27:42;99739.06;;;9.80;100.00
30730;BME280;17476;48.458;7.928;2023-11-21T10:30:10;99748.72;;;9.96;100.00
30730;BME280;17476;48.458;7.928;2023-11-21T10:32:42;99746.56;;;10.08;100.00
30730;BME280;17476;48.458;7.928;2023-11-21T10:35:08;99740.00;;;10.20;100.00
30730;BME280;17476;48.458;7.928;2023-11-21T10:37:41;99735.63;;;10.29;100.00
30730;BME280;17476;48.458;7.928;2023-11-21T10:40:10;99742.31;;;10.15;100.00
30730;BME280;17476;48.458;7.928;2023-11-21T10:42:39;99739.88;;;10.13;100.00
30730;BME280;17476;48.458;7.928;2023-11-21T10:45:07;99735.78;;;10.11;100.00
30730;BME280;17476;48.458;7.928;2023-11-21T10:47:41;99738.06;;;10.06;100.00
30730;BME280;17476;48.458;7.928;2023-11-21T10:50:08;99742.00;;;10.26;100.00
30730;BME280;17476;48.458;7.928;2023-11-21T10:52:40;99738.72;;;10.08;100.00
30730;BME280;17476;48.458;7.928;2023-11-21T10:55:19;99742.50;;;10.05;100.00
30730;BME280;17476;48.458;7.928;2023-11-21T10:57:53;99742.16;;;10.08;100.00
30730;BME280;17476;48.458;7.928;2023-11-21T11:00:20;99743.28;;;10.14;100.00
30730;BME280;17476;48.458;7.928;2023-11-21T11:02:52;99750.16;;;10.39;100.00
30730;BME280;17476;48.458;7.928;2023-11-21T11:05:23;99740.44;;;10.64;100.00
30730;BME280;17476;48.458;7.928;2023-11-21T11:08:06;99748.03;;;10.82;100.00
30730;BME280;17476;48.458;7.928;2023-11-21T11:10:33;99749.78;;;10.98;100.00
30730;BME280;17476;48.458;7.928;2023-11-21T11:12:59;99751.00;;;11.10;100.00
30730;BME280;17476;48.458;7.928;2023-11-21T11:15:26;99747.16;;;11.29;100.00
30730;BME280;17476;48.458;7.928;2023-11-21T11:17:54;99752.69;;;11.57;100.00
30730;BME280;17476;48.458;7.928;2023-11-21T11:20:29;99752.06;;;11.78;100.00
30730;BME280;17476;48.458;7.928;2023-11-21T11:25:46;99755.94;;;12.05;100.00
30730;BME280;17476;48.458;7.928;2023-11-21T11:28:21;99765.94;;;12.24;100.00
30730;BME280;17476;48.458;7.928;2023-11-21T11:34:34;99761.25;;;12.20;100.00
30730;BME280;17476;48.458;7.928;2023-11-21T11:36:41;99764.03;;;12.18;100.00
30730;BME280;17476;48.458;7.928;2023-11-21T11:39:35;99759.78;;;12.17;100.00
30730;BME280;17476;48.458;7.928;2023-11-21T11:42:04;99759.88;;;12.24;100.00
30730;BME280;17476;48.458;7.928;2023-11-21T11:50:12;99761.88;;;12.22;100.00
30730;BME280;17476;48.458;7.928;2023-11-21T11:52:50;99762.22;;;12.19;100.00
30730;BME280;17476;48.458;7.928;2023-11-21T11:55:19;99756.97;;;12.19;100.00
30730;BME280;17476;48.458;7.928;2023-11-21T11:57:49;99755.53;;;12.16;100.00
30730;BME280;17476;48.458;7.928;2023-11-21T12:00:42;99750.59;;;11.98;100.00
30730;BME280;17476;48.458;7.928;2023-11-21T12:03:09;99752.69;;;12.03;100.00
30730;BME280;17476;48.458;7.928;2023-11-21T12:05:36;99761.66;;;12.09;100.00
30730;BME280;17476;48.458;7.928;2023-11-21T12:08:06;99755.44;;;12.10;100.00
30730;BME280;17476;48.458;7.928;2023-11-21T12:10:38;99764.81;;;12.04;100.00
30730;BME280;17476;48.458;7.928;2023-11-21T12:13:11;99759.75;;;12.02;100.00
30730;BME280;17476;48.458;7.928;2023-11-21T12:15:39;99757.75;;;12.05;100.00
30730;BME280;17476;48.458;7.928;2023-11-21T12:18:06;99758.06;;;12.10;100.00
30730;BME280;17476;48.458;7.928;2023-11-21T12:20:32;99760.66;;;12.10;100.00
30730;BME280;17476;48.458;7.928;2023-11-21T12:23:05;99761.47;;;12.10;100.00
30730;BME280;17476;48.458;7.928;2023-11-21T12:25:31;99764.03;;;12.18;100.00
30730;BME280;17476;48.458;7.928;2023-11-21T12:28:00;99764.50;;;12.22;100.00
30730;BME280;17476;48.458;7.928;2023-11-21T12:30:30;99772.00;;;12.25;100.00
30730;BME280;17476;48.458;7.928;2023-11-21T12:32:58;99769.13;;;12.35;100.00
30730;BME280;17476;48.458;7.928;2023-11-21T12:35:30;99770.22;;;12.40;100.00
30730;BME280;17476;48.458;7.928;2023-11-21T12:37:56;99766.31;;;12.21;100.00
30730;BME280;17476;48.458;7.928;2023-11-21T12:40:26;99764.13;;;12.25;100.00
30730;BME280;17476;48.458;7.928;2023-11-21T12:42:54;99766.59;;;12.26;100.00
30730;BME280;17476;48.458;7.928;2023-11-21T12:45:25;99764.59;;;12.28;100.00
30730;BME280;17476;48.458;7.928;2023-11-21T12:48:04;99776.91;;;12.28;100.00
30730;BME280;17476;48.458;7.928;2023-11-21T12:50:35;99779.63;;;12.35;100.00
30730;BME280;17476;48.458;7.928;2023-11-21T12:53:12;99774.47;;;12.41;100.00
30730;BME280;17476;48.458;7.928;2023-11-21T12:55:38;99775.19;;;12.50;100.00
30730;BME280;17476;48.458;7.928;2023-11-21T12:58:07;99770.03;;;12.56;100.00
30730;BME280;17476;48.458;7.928;2023-11-21T13:00:48;99774.47;;;12.71;100.00
30730;BME280;17476;48.458;7.928;2023-11-21T13:03:15;99773.03;;;12.68;100.00
30730;BME280;17476;48.458;7.928;2023-11-21T13:05:44;99772.13;;;12.61;100.00
30730;BME280;17476;48.458;7.928;2023-11-21T13:08:12;99774.09;;;12.59;100.00
30730;BME280;17476;48.458;7.928;2023-11-21T13:10:43;99772.47;;;12.58;100.00